This is the latest recevied weather packets stored in our database for station/object JE9BHE-13. If no packets are shown the sender has not sent any weather packets the latest 10 day(s).
| Time | Temp. | Humidity | Pressure | Rain* | Wind** | Luminosity | Snow |
|---|---|---|---|---|---|---|---|
| 1777755786 | 17.78° C | 53% | 1012.4 hPa | 0 mm | - | - | - |
| 1777753626 | 17.22° C | 54% | 1012.4 hPa | 0 mm | - | - | - |
| 1777752727 | 17.22° C | 54% | 1012.3 hPa | 0 mm | - | - | - |
| 1777751646 | 17.22° C | 54% | 1012.4 hPa | 0 mm | - | - | - |
| 1777751286 | 17.22° C | 55% | 1012.5 hPa | 0 mm | - | - | - |
| 1777750927 | 17.22° C | 54% | 1012.4 hPa | 0 mm | - | - | - |
| 1777748766 | 16.67° C | 60% | 1013.2 hPa | 0 mm | - | - | - |
| 1777745526 | 17.22° C | 56% | 1013.4 hPa | 0 mm | - | - | - |
| 1777744447 | 17.22° C | 55% | 1013.7 hPa | 0 mm | - | - | - |
| 1777744086 | 17.22° C | 56% | 1013.3 hPa | 0 mm | - | - | - |
| 1777743907 | 17.22° C | 56% | 1013.5 hPa | 0 mm | - | - | - |
| 1777742647 | 16.67° C | 58% | 1013.4 hPa | 0 mm | - | - | - |
| 1777742466 | 16.67° C | 59% | 1013.4 hPa | 0 mm | - | - | - |
| 1777742287 | 16.67° C | 59% | 1013.3 hPa | 0 mm | - | - | - |
| 1777741927 | 16.67° C | 60% | 1013.1 hPa | 0 mm | - | - | - |
| 1777740847 | 16.11° C | 61% | 1013.4 hPa | 0 mm | - | - | - |
| 1777739946 | 16.67° C | 60% | 1012.6 hPa | 0 mm | - | - | - |
| 1777736706 | 16.11° C | 63% | 1014.1 hPa | 0 mm | - | - | - |
| 1777735626 | 16.11° C | 62% | 1014.2 hPa | 0 mm | - | - | - |
| 1777735266 | 16.11° C | 62% | 1014.2 hPa | 0 mm | - | - | - |
| 1777734010 | 16.11° C | 64% | 1014.2 hPa | 0 mm | - | - | - |
| 1777733827 | 16.11° C | 65% | 1014.2 hPa | 0 mm | - | - | - |
| 1777733468 | 15.56° C | 65% | 1014.4 hPa | 0 mm | - | - | - |
| 1777733107 | 15.56° C | 67% | 1014.6 hPa | 0 mm | - | - | - |
| 1777731666 | 16.11° C | 66% | 1015 hPa | 0 mm | - | - | - |
* Rain latest hour (hover to see other rain measurements)
** Current wind speed in m/s (hover to see current wind gust speed)